Time;durP1;ratioP1;P1;durP2;ratioP2;P2;SDS_P1;SDS_P2;PMS_P1;PMS_P2;Temp;Humidity;BMP_temperature;BMP_pressure;BME280_temperature;BME280_humidity;BME280_pressure;Samples;Min_cycle;Max_cycle;Signal;HPM_P1;HPM_P2
2022/03/18 00:00:33;;;;;;;20.90;8.80;;;2.90;38.90;;;;;;5039856;28;20148;-89
2022/03/18 00:02:59;;;;;;;27.60;11.23;;;2.90;39.00;;;;;;5039574;28;20017;-90
2022/03/18 00:05:25;;;;;;;19.83;9.03;;;2.80;39.00;;;;;;5039450;28;20017;-90
2022/03/18 00:07:59;;;;;;;25.30;9.57;;;2.90;39.00;;;;;;5039234;28;20028;-89
2022/03/18 00:10:24;;;;;;;22.13;9.80;;;2.80;39.00;;;;;;5038927;28;20060;-90
2022/03/18 00:12:52;;;;;;;24.30;10.70;;;2.80;39.20;;;;;;5039520;28;20355;-90
2022/03/18 00:15:18;;;;;;;25.37;9.70;;;2.80;39.20;;;;;;5039229;28;20021;-90
2022/03/18 00:17:44;;;;;;;24.30;10.23;;;2.80;39.30;;;;;;5039378;28;20082;-89
2022/03/18 00:20:12;;;;;;;23.42;10.13;;;2.70;39.30;;;;;;5039178;28;20029;-89
2022/03/18 00:22:42;;;;;;;25.83;10.13;;;2.60;39.40;;;;;;5039052;28;20004;-89
2022/03/18 00:25:09;;;;;;;21.90;9.20;;;2.70;39.50;;;;;;5039270;28;20385;-89
2022/03/18 00:27:35;;;;;;;15.93;6.23;;;2.70;39.50;;;;;;5038889;28;20355;-89
2022/03/18 00:30:05;;;;;;;23.43;9.73;;;2.60;39.70;;;;;;5055124;28;20409;-89
2022/03/18 00:32:32;;;;;;;21.80;8.60;;;2.60;39.80;;;;;;5038860;28;20056;-89
2022/03/18 00:34:58;;;;;;;23.73;10.00;;;2.60;39.80;;;;;;5038535;28;20061;-90
2022/03/18 00:37:23;;;;;;;22.85;10.82;;;2.50;39.90;;;;;;5038939;28;20016;-89
2022/03/18 00:39:49;;;;;;;26.20;10.00;;;2.50;39.90;;;;;;5039555;28;20436;-91
2022/03/18 00:42:14;;;;;;;23.50;10.05;;;2.50;40.00;;;;;;5039797;28;20033;-91
2022/03/18 00:44:40;;;;;;;26.40;10.32;;;2.50;40.00;;;;;;5039498;28;20033;-90
2022/03/18 00:52:02;;;;;;;24.80;11.00;;;2.50;40.10;;;;;;5039045;28;20500;-90
2022/03/18 00:52:37;;;;;;;26.30;10.70;;;2.40;40.10;;;;;;5056842;28;20040;-90
2022/03/18 00:55:03;;;;;;;;;;;2.40;40.10;;;;;;5038425;28;20030;-91
2022/03/18 00:57:28;;;;;;;15.23;7.70;;;2.40;40.10;;;;;;5038939;28;19905;-90
2022/03/18 00:59:54;;;;;;;23.60;8.65;;;2.40;40.10;;;;;;5038496;28;20017;-89
2022/03/18 01:02:20;;;;;;;24.45;10.05;;;2.40;40.20;;;;;;5038412;28;20021;-90
2022/03/18 01:04:50;;;;;;;19.23;9.15;;;2.30;40.40;;;;;;5038716;28;20017;-90
2022/03/18 01:07:16;;;;;;;14.90;6.60;;;2.30;40.50;;;;;;5038848;28;20013;-89
2022/03/18 01:09:42;;;;;;;26.33;9.50;;;2.30;40.70;;;;;;5038445;28;20033;-89
2022/03/18 01:12:08;;;;;;;17.27;7.25;;;2.30;40.70;;;;;;5036916;28;20111;-89
2022/03/18 01:14:34;;;;;;;18.70;8.00;;;2.30;40.70;;;;;;5038563;28;20017;-89
2022/03/18 01:16:59;;;;;;;21.17;9.27;;;2.20;40.80;;;;;;5038767;28;20377;-89
2022/03/18 01:19:25;;;;;;;19.63;8.02;;;2.20;40.70;;;;;;5038135;28;20512;-89
2022/03/18 01:21:51;;;;;;;20.05;7.78;;;2.20;40.80;;;;;;5038236;28;20032;-89
2022/03/18 01:24:16;;;;;;;21.25;8.77;;;2.10;40.90;;;;;;5056244;28;20037;-89
2022/03/18 01:26:42;;;;;;;15.35;7.45;;;2.10;41.00;;;;;;5055127;28;20061;-89
2022/03/18 01:29:08;;;;;;;17.83;7.07;;;2.10;41.30;;;;;;5039765;28;20024;-88
2022/03/18 01:31:34;;;;;;;23.53;8.13;;;2.10;41.30;;;;;;5039059;28;20037;-89
2022/03/18 01:34:00;;;;;;;17.17;7.97;;;2.00;41.30;;;;;;5038832;28;20033;-91
2022/03/18 01:36:25;;;;;;;18.85;6.55;;;2.00;41.30;;;;;;5038701;28;20025;-88
2022/03/18 01:38:51;;;;;;;15.45;6.25;;;1.90;41.40;;;;;;5038815;28;20025;-90
2022/03/18 01:41:16;;;;;;;20.55;7.15;;;1.90;41.30;;;;;;5038292;28;20021;-90
2022/03/18 01:43:45;;;;;;;15.88;8.10;;;1.90;41.30;;;;;;5037050;28;20045;-89
2022/03/18 01:46:11;;;;;;;18.50;7.53;;;1.90;41.40;;;;;;5053684;28;20094;-91
2022/03/18 01:48:36;;;;;;;20.70;7.60;;;1.80;41.50;;;;;;5037910;28;20040;-90
2022/03/18 01:51:07;;;;;;;16.92;8.32;;;1.90;41.80;;;;;;5038247;28;20029;-90
2022/03/18 01:53:38;;;;;;;15.30;7.47;;;1.80;41.80;;;;;;5038057;28;20045;-88
2022/03/18 01:56:14;;;;;;;20.40;8.47;;;1.80;41.80;;;;;;5054709;28;20543;-89
2022/03/18 01:58:40;;;;;;;16.83;6.20;;;1.80;41.90;;;;;;5038107;28;20067;-90
2022/03/18 02:01:05;;;;;;;15.55;6.93;;;1.80;41.90;;;;;;5038239;28;20466;-89
2022/03/18 02:03:31;;;;;;;20.63;8.70;;;1.80;42.00;;;;;;5038358;28;20020;-88
2022/03/18 02:05:57;;;;;;;22.90;9.63;;;1.80;42.00;;;;;;5038599;28;20040;-89
2022/03/18 02:08:23;;;;;;;18.27;7.93;;;1.80;42.20;;;;;;5041924;28;20021;-90
2022/03/18 02:10:49;;;;;;;21.52;8.75;;;1.70;42.20;;;;;;5041513;28;20029;-91
2022/03/18 02:13:15;;;;;;;17.57;8.07;;;1.70;42.30;;;;;;5041966;28;20021;-91
2022/03/18 02:15:41;;;;;;;21.00;8.50;;;1.60;42.40;;;;;;5041966;28;20024;-90
2022/03/18 02:18:06;;;;;;;25.00;9.18;;;1.60;42.40;;;;;;5042228;28;20033;-91
2022/03/18 02:20:34;;;;;;;18.23;8.55;;;1.60;42.50;;;;;;5042111;28;20021;-91
2022/03/18 02:23:00;;;;;;;17.90;7.93;;;1.60;42.60;;;;;;5040924;28;20503;-90
2022/03/18 02:25:26;;;;;;;16.50;6.77;;;1.50;42.60;;;;;;5042873;28;20129;-90
2022/03/18 02:27:56;;;;;;;23.58;9.35;;;1.50;42.70;;;;;;5058364;28;20029;-89
2022/03/18 02:30:23;;;;;;;19.27;7.73;;;1.40;42.80;;;;;;5041695;28;20405;-90
2022/03/18 02:32:48;;;;;;;21.90;8.10;;;1.40;42.90;;;;;;5041147;28;20017;-90
2022/03/18 02:35:14;;;;;;;20.95;8.38;;;1.30;43.00;;;;;;5040854;28;20025;-89
2022/03/18 02:37:39;;;;;;;25.40;9.65;;;1.30;43.00;;;;;;5041281;28;20021;-91
2022/03/18 02:40:06;;;;;;;23.30;9.35;;;1.30;43.20;;;;;;5040866;28;20056;-90
2022/03/18 02:42:31;;;;;;;21.00;8.40;;;1.20;43.20;;;;;;5041213;28;20040;-90
2022/03/18 02:44:57;;;;;;;25.35;10.63;;;1.20;43.30;;;;;;5041728;28;20028;-91
2022/03/18 02:47:24;;;;;;;22.83;9.70;;;1.10;43.40;;;;;;5041428;28;20411;-89
2022/03/18 02:49:50;;;;;;;26.67;9.97;;;1.10;43.50;;;;;;5042172;28;20485;-90
2022/03/18 02:52:15;;;;;;;26.73;10.93;;;1.10;43.60;;;;;;5041333;28;20028;-90
2022/03/18 02:54:42;;;;;;;25.88;9.05;;;1.00;43.80;;;;;;5040599;28;20021;-90
2022/03/18 02:57:08;;;;;;;24.27;9.13;;;1.00;43.80;;;;;;5056328;28;20331;-90
2022/03/18 02:59:34;;;;;;;;;;;0.90;44.00;;;;;;5041398;28;20055;-90
2022/03/18 03:01:59;;;;;;;24.90;9.13;;;0.90;44.10;;;;;;5040734;28;19904;-90
2022/03/18 03:07:59;;;;;;;28.00;9.97;;;0.90;44.30;;;;;;5058227;28;20028;-89
2022/03/18 03:10:26;;;;;;;30.33;8.77;;;0.80;44.20;;;;;;5040725;28;20432;-90
2022/03/18 03:12:51;;;;;;;23.33;9.43;;;0.80;44.30;;;;;;5040393;28;20021;-90
2022/03/18 03:15:20;;;;;;;18.05;8.25;;;0.80;44.40;;;;;;5041076;28;20024;-90
2022/03/18 03:17:45;;;;;;;23.07;9.47;;;0.70;44.60;;;;;;5040344;28;20029;-90
2022/03/18 03:20:11;;;;;;;27.80;10.32;;;0.70;44.70;;;;;;5040450;28;20390;-90
2022/03/18 03:22:37;;;;;;;25.58;10.15;;;0.70;44.80;;;;;;5041270;28;20116;-90
2022/03/18 03:25:02;;;;;;;23.98;8.32;;;0.60;44.80;;;;;;5040938;28;20033;-91
2022/03/18 03:27:33;;;;;;;18.85;7.45;;;0.60;44.80;;;;;;5058374;28;20036;-90
2022/03/18 03:30:00;;;;;;;32.60;10.70;;;0.60;45.00;;;;;;5041295;28;20037;-90
2022/03/18 03:32:27;;;;;;;27.90;10.00;;;0.60;45.20;;;;;;5040936;28;20457;-91
2022/03/18 03:34:54;;;;;;;22.10;8.20;;;0.60;45.30;;;;;;5040983;28;20490;-91
2022/03/18 03:37:20;;;;;;;22.87;7.80;;;0.50;45.50;;;;;;5040897;28;20027;-90
2022/03/18 03:39:45;;;;;;;28.08;10.50;;;0.50;45.60;;;;;;5040976;28;20044;-90
2022/03/18 03:42:11;;;;;;;23.42;10.00;;;0.50;45.60;;;;;;5040545;28;20052;-90
2022/03/18 03:44:37;;;;;;;26.55;10.40;;;0.40;45.70;;;;;;5039923;28;20028;-90
2022/03/18 03:47:02;;;;;;;21.83;9.70;;;0.40;45.80;;;;;;5039438;28;20025;-90
2022/03/18 03:49:28;;;;;;;17.13;6.03;;;0.40;45.90;;;;;;5040297;28;20033;-89
2022/03/18 03:51:53;;;;;;;23.48;9.25;;;0.40;45.90;;;;;;5040446;28;20389;-89
2022/03/18 03:54:19;;;;;;;27.65;9.05;;;0.40;46.00;;;;;;5040363;28;20016;-90
2022/03/18 03:56:45;;;;;;;26.73;10.50;;;0.30;46.20;;;;;;5056407;28;20381;-90
2022/03/18 03:59:10;;;;;;;27.02;9.50;;;0.30;46.20;;;;;;5040069;28;20103;-91
2022/03/18 04:01:36;;;;;;;20.80;9.32;;;0.30;46.30;;;;;;5057060;28;20033;-91
2022/03/18 04:04:04;;;;;;;21.52;8.48;;;0.30;46.30;;;;;;5040112;28;20009;-90
2022/03/18 04:06:32;;;;;;;18.53;7.60;;;0.30;46.50;;;;;;5039506;28;20021;-90
2022/03/18 04:08:58;;;;;;;20.90;9.17;;;0.30;46.50;;;;;;5039628;28;20028;-90
2022/03/18 04:11:23;;;;;;;22.90;9.15;;;0.20;46.60;;;;;;5038957;28;20029;-90
2022/03/18 04:13:49;;;;;;;17.67;5.30;;;0.20;46.60;;;;;;5039356;28;20028;-90
2022/03/18 04:16:15;;;;;;;15.70;7.20;;;0.20;46.60;;;;;;5039857;28;20024;-89
2022/03/18 04:18:41;;;;;;;23.43;9.17;;;0.20;46.70;;;;;;5037680;28;20108;-89
2022/03/18 04:21:07;;;;;;;17.30;7.85;;;0.20;46.60;;;;;;5039546;28;20535;-90
2022/03/18 04:23:35;;;;;;;18.05;8.63;;;0.20;46.70;;;;;;5039412;28;20021;-89
2022/03/18 04:26:00;;;;;;;20.77;7.67;;;0.20;46.80;;;;;;5039172;28;20028;-90
2022/03/18 04:28:26;;;;;;;17.88;8.52;;;0.20;46.80;;;;;;5052326;28;20076;-89
2022/03/18 04:30:51;;;;;;;15.13;6.93;;;0.20;46.80;;;;;;5019487;28;20073;-90
2022/03/18 04:33:17;;;;;;;16.40;7.53;;;0.10;46.80;;;;;;5020481;28;20018;-90
2022/03/18 04:35:42;;;;;;;18.58;8.35;;;0.10;46.90;;;;;;5019927;28;20028;-89
2022/03/18 04:38:08;;;;;;;18.02;8.20;;;0.10;46.90;;;;;;5020556;28;20030;-90
2022/03/18 04:40:34;;;;;;;19.33;8.90;;;0.10;46.90;;;;;;5020026;28;20029;-90
2022/03/18 04:42:59;;;;;;;17.48;7.60;;;0.10;47.00;;;;;;5019141;28;20018;-90
2022/03/18 04:45:25;;;;;;;15.30;7.05;;;0.10;47.00;;;;;;5019590;28;20032;-90
2022/03/18 04:47:50;;;;;;;17.45;8.45;;;0.10;47.00;;;;;;5052320;28;20013;-90
2022/03/18 04:50:16;;;;;;;16.15;8.20;;;0.10;47.10;;;;;;5018352;28;20029;-90
2022/03/18 04:52:41;;;;;;;19.35;8.35;;;0.10;47.10;;;;;;5018013;28;20022;-90
2022/03/18 04:55:08;;;;;;;19.10;8.30;;;0.10;47.10;;;;;;5019042;28;20017;-90
2022/03/18 04:57:34;;;;;;;22.83;8.77;;;0.10;47.10;;;;;;5052071;28;20021;-90
2022/03/18 04:59:59;;;;;;;17.88;8.60;;;0.10;47.20;;;;;;5019054;28;20085;-90
2022/03/18 05:02:25;;;;;;;23.05;8.95;;;0.10;47.40;;;;;;5018880;28;20459;-90
2022/03/18 05:04:54;;;;;;;16.25;9.30;;;0.10;47.30;;;;;;5018903;28;20466;-89
2022/03/18 05:07:19;;;;;;;25.47;7.90;;;0.10;47.20;;;;;;5018591;28;20471;-89
2022/03/18 05:09:46;;;;;;;16.52;7.47;;;0.10;47.20;;;;;;5018790;28;20033;-90
2022/03/18 05:12:14;;;;;;;19.60;7.60;;;0.20;47.30;;;;;;5018537;28;20124;-91
2022/03/18 05:14:41;;;;;;;14.90;7.67;;;0.20;47.20;;;;;;5019032;28;20033;-91
2022/03/18 05:17:07;;;;;;;;;;;0.20;47.20;;;;;;5052222;28;20033;-90
2022/03/18 05:19:34;;;;;;;19.80;8.45;;;0.30;47.30;;;;;;5019326;28;20540;-91
2022/03/18 05:22:05;;;;;;;22.90;9.33;;;0.30;47.10;;;;;;5018540;28;20022;-91
2022/03/18 05:24:38;;;;;;;21.90;9.90;;;0.30;47.20;;;;;;5019029;28;20061;-90
2022/03/18 05:27:04;;;;;;;23.33;10.60;;;0.30;47.20;;;;;;5018758;28;20487;-90
2022/03/18 05:30:09;;;;;;;16.85;8.57;;;0.40;47.10;;;;;;5016954;28;20057;-90
2022/03/18 05:32:42;;;;;;;20.20;9.17;;;0.40;47.30;;;;;;5014212;28;20039;-89
2022/03/18 05:49:29;;;;;;;14.07;7.53;;;0.80;46.80;;;;;;5039693;28;20060;-90
2022/03/18 05:58:38;;;;;;;19.70;8.60;;;1.00;46.60;;;;;;5039199;28;20064;-90
2022/03/18 06:01:04;;;;;;;14.98;7.47;;;1.10;46.50;;;;;;5053446;28;20072;-91
2022/03/18 06:03:30;;;;;;;20.55;8.25;;;1.10;46.50;;;;;;5021373;28;20033;-91
2022/03/18 06:06:47;;;;;;;20.75;8.70;;;1.10;46.50;;;;;;5021297;28;20034;-91
2022/03/18 06:11:58;;;;;;;18.57;8.50;;;1.30;46.40;;;;;;5040423;28;20103;-89
2022/03/18 06:14:28;;;;;;;22.33;8.98;;;1.30;46.40;;;;;;5021084;28;20022;-90
2022/03/18 06:23:10;;;;;;;18.67;7.97;;;1.50;46.20;;;;;;4959409;29;20055;-90
2022/03/18 06:25:35;;;;;;;21.05;7.63;;;1.60;46.00;;;;;;5012801;28;20030;-90
2022/03/18 06:28:01;;;;;;;18.65;9.07;;;1.70;46.00;;;;;;5021584;28;20089;-90
2022/03/18 06:30:26;;;;;;;12.50;7.22;;;1.80;45.90;;;;;;5021303;28;20040;-89
2022/03/18 06:32:52;;;;;;;12.38;6.28;;;1.80;45.80;;;;;;5020589;28;20042;-89
2022/03/18 06:35:17;;;;;;;19.20;7.85;;;1.90;45.70;;;;;;5019235;28;20028;-89
2022/03/18 06:37:43;;;;;;;12.52;6.28;;;2.00;45.60;;;;;;5025510;28;20074;-89
2022/03/18 06:40:09;;;;;;;16.65;7.38;;;2.10;45.50;;;;;;5040721;28;20021;-89
2022/03/18 06:42:34;;;;;;;15.10;7.40;;;2.20;45.40;;;;;;5041585;28;20044;-90
2022/03/18 06:45:00;;;;;;;13.68;7.88;;;2.30;45.40;;;;;;5040508;28;20036;-89
2022/03/18 06:47:27;;;;;;;22.65;8.70;;;2.30;45.30;;;;;;5040249;28;20598;-89
2022/03/18 06:53:22;;;;;;;15.47;7.33;;;2.50;45.10;;;;;;5057398;28;20161;-89
2022/03/18 06:55:47;;;;;;;16.60;7.43;;;2.60;44.80;;;;;;5040425;28;20470;-90
2022/03/18 06:58:13;;;;;;;15.27;7.82;;;2.80;44.70;;;;;;5040655;28;20037;-89
2022/03/18 07:04:49;;;;;;;14.30;6.45;;;2.90;44.30;;;;;;5056917;28;20124;-90
2022/03/18 07:07:14;;;;;;;18.92;6.60;;;3.00;43.90;;;;;;5040492;28;20100;-90
2022/03/18 07:09:40;;;;;;;16.05;7.75;;;3.10;43.70;;;;;;5039717;28;20071;-91
2022/03/18 07:12:06;;;;;;;13.88;7.75;;;3.10;43.60;;;;;;5040884;28;20025;-87
2022/03/18 07:21:22;;;;;;;15.20;7.57;;;3.30;43.30;;;;;;4979674;28;20038;-93
2022/03/18 07:23:48;;;;;;;15.88;8.23;;;3.40;43.10;;;;;;4961605;28;20130;-91
2022/03/18 07:33:04;;;;;;;13.93;7.38;;;3.50;42.80;;;;;;5054871;28;20067;-90
2022/03/18 07:35:31;;;;;;;16.48;8.23;;;3.60;42.70;;;;;;5028161;28;20514;-92
2022/03/18 07:37:57;;;;;;;19.53;8.87;;;3.60;42.60;;;;;;5032054;28;20474;-89
2022/03/18 07:40:23;;;;;;;19.40;8.40;;;3.70;42.60;;;;;;5040119;28;20109;-91
2022/03/18 07:42:54;;;;;;;20.57;8.70;;;3.80;42.60;;;;;;5029479;28;20017;-90
2022/03/18 07:45:22;;;;;;;17.37;7.03;;;3.90;42.30;;;;;;5037154;28;20091;-90
2022/03/18 07:47:51;;;;;;;14.57;7.20;;;4.00;42.10;;;;;;5023008;28;20053;-91
2022/03/18 07:50:21;;;;;;;15.83;7.67;;;4.20;42.10;;;;;;5038275;28;20468;-91
2022/03/18 07:52:52;;;;;;;13.07;6.87;;;4.30;41.70;;;;;;5032158;28;20029;-91
2022/03/18 07:55:19;;;;;;;16.60;8.83;;;4.40;41.50;;;;;;5038740;28;20029;-91
2022/03/18 07:57:45;;;;;;;13.40;7.17;;;4.50;41.40;;;;;;5028899;28;20109;-90
2022/03/18 08:00:12;;;;;;;16.30;8.65;;;4.50;41.40;;;;;;5025944;28;20053;-91
2022/03/18 08:02:42;;;;;;;19.03;8.77;;;4.70;41.40;;;;;;5035666;28;20025;-93
2022/03/18 08:05:08;;;;;;;14.20;6.83;;;4.80;41.10;;;;;;5010620;28;20020;-89
2022/03/18 08:07:35;;;;;;;16.77;7.83;;;4.90;40.90;;;;;;5023024;28;20569;-89
2022/03/18 08:10:00;;;;;;;17.00;7.73;;;5.00;40.80;;;;;;5023930;28;20047;-90
2022/03/18 08:12:30;;;;;;;20.30;9.05;;;5.20;40.40;;;;;;5021534;28;20061;-90
2022/03/18 08:14:58;;;;;;;19.40;8.13;;;5.30;40.20;;;;;;5024013;28;20025;-90
2022/03/18 08:17:23;;;;;;;35.53;9.13;;;5.40;40.10;;;;;;5028953;28;20473;-90
2022/03/18 08:19:52;;;;;;;17.25;8.20;;;5.40;40.10;;;;;;5022995;28;20021;-89
2022/03/18 08:22:22;;;;;;;17.17;7.57;;;5.50;40.00;;;;;;5027349;28;20386;-89
2022/03/18 08:24:49;;;;;;;21.97;7.87;;;5.60;40.00;;;;;;5023084;28;20076;-89
2022/03/18 08:27:15;;;;;;;14.73;7.03;;;5.70;39.80;;;;;;5028606;28;20482;-88
2022/03/18 08:29:41;;;;;;;15.43;7.47;;;5.80;39.50;;;;;;5033255;28;20492;-88
2022/03/18 08:32:08;;;;;;;;;;;5.80;39.40;;;;;;5029577;28;20397;-89
2022/03/18 08:34:35;;;;;;;13.13;6.20;;;5.80;39.40;;;;;;5053030;28;19927;-89
2022/03/18 08:37:00;;;;;;;14.27;6.30;;;5.90;39.20;;;;;;5036994;28;20104;-92
2022/03/18 08:39:26;;;;;;;13.95;7.32;;;5.90;39.20;;;;;;5038951;28;20033;-91
2022/03/18 08:41:51;;;;;;;13.07;7.60;;;5.90;39.00;;;;;;5038203;28;20029;-89
2022/03/18 08:44:20;;;;;;;19.30;7.90;;;6.00;39.00;;;;;;5037934;28;20103;-90
2022/03/18 08:46:47;;;;;;;20.63;7.73;;;6.00;38.90;;;;;;5034397;28;20521;-90
2022/03/18 08:49:13;;;;;;;15.67;7.30;;;6.10;38.70;;;;;;5036056;28;20487;-91
2022/03/18 08:51:38;;;;;;;11.20;6.32;;;6.20;38.60;;;;;;5035526;28;20086;-91
2022/03/18 08:54:04;;;;;;;15.68;7.25;;;6.20;38.60;;;;;;5037879;28;20463;-90
2022/03/18 08:56:30;;;;;;;20.95;8.02;;;6.20;38.60;;;;;;5037994;28;20017;-91
2022/03/18 08:58:56;;;;;;;13.65;7.03;;;6.30;38.60;;;;;;5037780;28;20045;-91
2022/03/18 09:01:22;;;;;;;15.02;6.45;;;6.30;38.50;;;;;;5037733;28;20044;-91
2022/03/18 09:03:48;;;;;;;;;;;6.30;38.50;;;;;;5039823;28;20355;-91
2022/03/18 09:06:14;;;;;;;15.30;7.40;;;6.40;38.10;;;;;;5053758;28;19920;-91
2022/03/18 09:08:41;;;;;;;24.63;9.20;;;6.50;37.90;;;;;;5039376;28;20040;-91
2022/03/18 09:11:12;;;;;;;16.43;7.80;;;6.40;38.00;;;;;;5042388;28;20036;-91
2022/03/18 09:13:40;;;;;;;17.67;7.97;;;6.50;38.10;;;;;;5040133;28;20028;-91
2022/03/18 09:16:06;;;;;;;9.80;5.20;;;6.60;37.80;;;;;;5043990;28;20028;-91
2022/03/18 09:18:32;;;;;;;15.82;8.10;;;6.60;37.70;;;;;;5047516;28;20017;-90
2022/03/18 09:20:58;;;;;;;12.32;6.20;;;6.70;37.50;;;;;;5045682;28;20426;-91
2022/03/18 09:23:23;;;;;;;;;;;6.80;37.50;;;;;;5046400;28;20021;-91
2022/03/18 09:25:49;;;;;;;47.40;9.77;;;6.80;37.50;;;;;;5046602;28;19977;-89
2022/03/18 09:28:15;;;;;;;23.38;8.68;;;6.90;37.30;;;;;;5046602;28;20053;-91
2022/03/18 09:30:41;;;;;;;16.85;7.70;;;6.90;37.20;;;;;;5046710;28;20021;-91
2022/03/18 09:33:07;;;;;;;14.80;6.27;;;7.00;37.30;;;;;;5045991;28;20047;-92
2022/03/18 09:35:33;;;;;;;49.75;10.43;;;7.00;37.20;;;;;;5059935;28;20417;-91
2022/03/18 09:37:59;;;;;;;12.40;6.13;;;7.20;37.10;;;;;;5045393;28;20074;-90
2022/03/18 09:40:24;;;;;;;18.88;7.80;;;7.30;36.90;;;;;;5045824;28;20049;-90
2022/03/18 09:43:06;;;;;;;15.05;7.43;;;7.30;36.50;;;;;;5045724;28;20032;-90
2022/03/18 09:45:35;;;;;;;8.80;4.50;;;7.40;36.50;;;;;;5031464;28;20373;-89
2022/03/18 09:48:03;;;;;;;18.80;7.93;;;7.50;36.10;;;;;;5062563;28;20029;-90
2022/03/18 09:50:29;;;;;;;15.30;7.70;;;7.60;36.00;;;;;;5044719;28;20029;-90
2022/03/18 09:52:56;;;;;;;13.83;7.30;;;7.70;35.90;;;;;;5045430;28;20036;-90
2022/03/18 09:55:23;;;;;;;19.90;8.63;;;7.80;35.80;;;;;;5044473;28;20024;-90
2022/03/18 09:57:48;;;;;;;17.10;6.97;;;7.80;35.80;;;;;;5045237;28;20844;-90
2022/03/18 10:00:15;;;;;;;16.77;7.32;;;8.00;35.60;;;;;;5045045;28;20089;-91
2022/03/18 10:02:41;;;;;;;14.83;7.90;;;8.10;35.40;;;;;;5045638;28;20029;-90
2022/03/18 10:05:11;;;;;;;;;;;8.20;35.10;;;;;;5059645;28;20025;-88
2022/03/18 10:07:37;;;;;;;19.63;8.33;;;8.30;34.90;;;;;;5038380;28;20361;-89
2022/03/18 10:10:04;;;;;;;19.50;8.32;;;8.30;34.90;;;;;;5044116;28;20470;-89
2022/03/18 10:12:39;;;;;;;28.07;8.23;;;8.30;35.00;;;;;;5039430;28;20037;-87
2022/03/18 10:15:17;;;;;;;16.83;7.87;;;8.50;34.90;;;;;;5039714;28;20488;-86
2022/03/18 10:17:57;;;;;;;14.47;6.50;;;8.60;34.90;;;;;;5037258;28;20021;-86
2022/03/18 10:20:26;;;;;;;14.77;6.53;;;8.80;34.60;;;;;;5038729;28;20029;-87
2022/03/18 10:22:53;;;;;;;13.03;7.37;;;9.50;34.10;;;;;;5037315;28;20032;-86
2022/03/18 10:25:57;;;;;;;12.17;7.13;;;10.60;32.30;;;;;;5037567;28;20029;-87
2022/03/18 10:28:40;;;;;;;15.15;7.65;;;12.10;30.40;;;;;;5035072;28;20021;-88
2022/03/18 10:31:21;;;;;;;15.48;7.55;;;13.70;28.90;;;;;;5042502;28;20033;-88
2022/03/18 10:39:28;;;;;;;16.90;7.65;;;17.80;26.10;;;;;;5050981;28;20441;-88
2022/03/18 10:41:55;;;;;;;17.05;8.23;;;18.90;24.70;;;;;;5039761;28;20021;-88
2022/03/18 10:44:21;;;;;;;16.40;8.52;;;19.60;23.60;;;;;;5039152;28;20017;-86
2022/03/18 10:46:49;;;;;;;15.15;8.07;;;20.30;23.10;;;;;;5038891;28;20104;-87
2022/03/18 10:49:15;;;;;;;16.13;8.23;;;21.00;22.50;;;;;;5038358;28;20024;-87
2022/03/18 10:51:41;;;;;;;15.82;8.02;;;21.80;22.00;;;;;;5038382;28;20025;-87
2022/03/18 10:54:07;;;;;;;17.75;8.30;;;22.60;21.40;;;;;;5037772;28;20024;-88
2022/03/18 10:56:57;;;;;;;15.65;8.05;;;23.50;20.80;;;;;;5037478;28;20109;-86
2022/03/18 10:59:24;;;;;;;12.43;7.00;;;24.30;19.50;;;;;;5038038;28;20048;-88
2022/03/18 11:01:51;;;;;;;12.52;7.18;;;24.70;19.00;;;;;;5037641;28;20032;-88
2022/03/18 11:04:18;;;;;;;11.85;7.57;;;24.80;18.10;;;;;;5037058;28;20033;-88
2022/03/18 11:07:29;;;;;;;13.05;8.18;;;24.90;17.80;;;;;;5037615;28;20025;-88
2022/03/18 11:12:49;;;;;;;12.00;7.50;;;25.60;17.40;;;;;;5055923;28;20101;-87
2022/03/18 11:15:16;;;;;;;12.35;7.55;;;25.80;16.80;;;;;;5038633;28;20032;-87
2022/03/18 11:17:42;;;;;;;13.43;7.97;;;26.00;16.90;;;;;;5038473;28;20031;-87
2022/03/18 11:20:10;;;;;;;12.68;7.30;;;26.00;16.60;;;;;;5038239;28;20483;-86
2022/03/18 11:22:37;;;;;;;12.93;7.78;;;26.20;16.50;;;;;;5038985;28;20036;-87
2022/03/18 11:25:04;;;;;;;12.32;7.95;;;26.40;16.50;;;;;;5053197;28;20021;-87
2022/03/18 11:27:30;;;;;;;16.75;7.47;;;26.80;16.10;;;;;;5038137;28;20452;-87
2022/03/18 11:30:30;;;;;;;10.63;7.20;;;27.30;15.80;;;;;;5057228;28;20068;-87
2022/03/18 11:33:11;;;;;;;11.63;7.53;;;27.60;15.50;;;;;;5038134;28;20600;-88
2022/03/18 11:35:49;;;;;;;12.63;7.03;;;27.80;15.50;;;;;;5038178;28;20397;-87
2022/03/18 11:38:15;;;;;;;13.68;7.70;;;27.80;15.10;;;;;;5036718;28;20040;-87
2022/03/18 11:40:57;;;;;;;12.52;7.82;;;27.90;15.20;;;;;;5037512;28;20025;-87
2022/03/18 11:43:33;;;;;;;13.48;7.55;;;28.30;14.90;;;;;;5048086;28;20033;-87
2022/03/18 11:46:16;;;;;;;;;;;28.70;14.70;;;;;;5027346;28;20022;-88
2022/03/18 11:49:05;;;;;;;12.20;7.07;;;29.00;14.80;;;;;;5058099;28;20013;-89
2022/03/18 11:51:42;;;;;;;14.48;7.43;;;29.40;14.20;;;;;;5038861;28;20036;-88
2022/03/18 11:54:26;;;;;;;11.20;7.55;;;29.50;13.90;;;;;;5056819;28;20025;-88
2022/03/18 11:56:53;;;;;;;11.60;7.65;;;29.40;13.80;;;;;;5039223;28;20025;-87
2022/03/18 11:59:24;;;;;;;11.73;7.28;;;29.50;13.80;;;;;;5036231;28;20021;-87
2022/03/18 12:02:00;;;;;;;12.40;7.38;;;29.80;13.70;;;;;;5038515;28;20033;-88
2022/03/18 12:04:54;;;;;;;10.38;7.28;;;30.10;13.40;;;;;;5038777;28;20024;-89
2022/03/18 12:07:45;;;;;;;9.85;6.95;;;30.20;13.60;;;;;;5055572;28;20107;-88
2022/03/18 12:10:13;;;;;;;12.60;7.65;;;30.40;13.10;;;;;;5039132;28;20355;-87
2022/03/18 12:12:50;;;;;;;13.30;7.10;;;30.40;13.20;;;;;;5045849;28;20482;-88
2022/03/18 12:15:18;;;;;;;14.10;8.05;;;30.60;13.00;;;;;;5034936;28;20024;-88
2022/03/18 12:17:48;;;;;;;11.82;7.55;;;30.50;12.90;;;;;;5038048;28;20024;-88
2022/03/18 12:20:25;;;;;;;12.95;7.78;;;30.40;12.90;;;;;;5038359;28;20108;-87
2022/03/18 12:22:53;;;;;;;12.30;7.57;;;30.30;12.80;;;;;;5037094;28;20059;-88
2022/03/18 12:25:20;;;;;;;13.50;7.75;;;30.30;12.80;;;;;;5024983;28;20049;-88
2022/03/18 12:27:58;;;;;;;10.95;7.55;;;30.40;12.90;;;;;;5036709;28;20111;-88
2022/03/18 12:30:29;;;;;;;9.48;6.68;;;30.60;12.50;;;;;;5034088;28;20040;-89
2022/03/18 12:32:56;;;;;;;11.20;7.47;;;30.50;12.50;;;;;;5036330;28;20124;-88
2022/03/18 12:35:28;;;;;;;11.70;7.93;;;30.50;12.60;;;;;;5054533;28;20363;-88
2022/03/18 12:38:03;;;;;;;13.23;7.57;;;30.40;12.50;;;;;;5034579;28;20026;-88
2022/03/18 12:40:29;;;;;;;12.02;7.38;;;30.30;12.50;;;;;;5035718;28;20490;-87
2022/03/18 12:42:57;;;;;;;12.13;6.88;;;30.30;12.50;;;;;;5037090;28;20048;-88
2022/03/18 12:45:25;;;;;;;10.65;7.40;;;30.30;12.50;;;;;;5038610;28;20029;-88
2022/03/18 12:47:52;;;;;;;10.85;7.70;;;30.50;12.20;;;;;;5039210;28;20029;-88
2022/03/18 12:50:18;;;;;;;10.82;7.25;;;30.80;12.30;;;;;;5038056;28;20124;-88
2022/03/18 12:52:44;;;;;;;13.32;7.35;;;31.00;12.20;;;;;;5038081;28;20096;-88
2022/03/18 12:55:14;;;;;;;12.75;7.95;;;31.00;12.20;;;;;;5037112;28;20112;-87
2022/03/18 12:57:41;;;;;;;12.30;7.85;;;30.80;12.30;;;;;;5054936;28;20029;-88
2022/03/18 13:00:13;;;;;;;12.38;7.63;;;30.70;12.10;;;;;;5036564;28;20043;-88
2022/03/18 13:02:43;;;;;;;10.52;7.03;;;30.50;12.20;;;;;;5037430;28;20025;-88
2022/03/18 13:05:10;;;;;;;14.48;8.30;;;30.60;12.20;;;;;;5037009;28;20064;-89
2022/03/18 13:07:36;;;;;;;12.45;6.78;;;30.90;12.00;;;;;;5020455;28;20140;-88
2022/03/18 13:10:03;;;;;;;14.00;7.05;;;31.10;11.90;;;;;;5052966;28;20100;-87
2022/03/18 13:12:31;;;;;;;12.30;7.60;;;30.90;11.70;;;;;;5036779;28;20025;-88
2022/03/18 13:15:17;;;;;;;12.00;7.25;;;30.80;12.00;;;;;;5036790;28;20085;-87
2022/03/18 13:17:47;;;;;;;10.85;6.90;;;30.60;11.90;;;;;;5028154;28;20179;-88
2022/03/18 13:20:29;;;;;;;9.10;6.70;;;30.60;11.80;;;;;;5035876;28;20274;-88
2022/03/18 13:22:57;;;;;;;14.55;7.72;;;30.30;11.80;;;;;;5036123;28;20500;-88
2022/03/18 13:25:24;;;;;;;10.93;7.53;;;29.90;12.10;;;;;;5028306;28;20044;-87
2022/03/18 13:27:50;;;;;;;11.27;8.13;;;29.90;12.10;;;;;;5034252;28;20021;-87
2022/03/18 13:33:07;;;;;;;13.32;7.82;;;30.00;12.00;;;;;;5054598;28;20105;-88
2022/03/18 13:35:45;;;;;;;13.40;7.25;;;30.20;12.00;;;;;;5051542;28;20351;-85
2022/03/18 13:38:17;;;;;;;12.88;8.43;;;29.80;12.00;;;;;;5034931;28;20032;-86
2022/03/18 13:41:14;;;;;;;11.80;7.50;;;29.60;12.10;;;;;;5050861;28;20063;-87
2022/03/18 13:43:40;;;;;;;10.70;7.32;;;29.50;12.30;;;;;;5023353;28;20053;-88
2022/03/18 13:46:12;;;;;;;13.65;8.23;;;29.50;12.30;;;;;;5053513;28;20492;-86
2022/03/18 13:48:38;;;;;;;10.77;7.82;;;29.30;12.20;;;;;;5034518;28;20078;-87
2022/03/18 13:51:06;;;;;;;11.70;7.30;;;29.30;12.30;;;;;;5055057;28;20098;-88
2022/03/18 13:53:33;;;;;;;12.18;7.97;;;29.30;12.20;;;;;;5036651;28;20014;-89
2022/03/18 13:56:18;;;;;;;11.32;7.15;;;29.30;12.30;;;;;;5036443;28;20049;-88
2022/03/18 13:58:45;;;;;;;12.63;7.45;;;29.40;12.30;;;;;;5036235;28;20036;-88
2022/03/18 14:01:15;;;;;;;12.40;7.38;;;29.30;12.30;;;;;;5038361;28;20032;-89